sensor_id;sensor_type;location;lat;lon;timestamp;pressure;altitude;pressure_sealevel;temperature
44429;BMP180;30134;47.866;-4.222;2023-12-22T00:01:06;102128.00;;;21.00
44429;BMP180;30134;47.866;-4.222;2023-12-22T00:03:32;102108.00;;;21.00
44429;BMP180;30134;47.866;-4.222;2023-12-22T00:05:59;102101.00;;;21.00
44429;BMP180;30134;47.866;-4.222;2023-12-22T00:08:25;102100.00;;;21.00
44429;BMP180;30134;47.866;-4.222;2023-12-22T00:10:52;102085.00;;;21.00
44429;BMP180;30134;47.866;-4.222;2023-12-22T00:13:18;102081.00;;;21.10
44429;BMP180;30134;47.866;-4.222;2023-12-22T00:15:44;102074.00;;;21.10
44429;BMP180;30134;47.866;-4.222;2023-12-22T00:18:11;102079.00;;;21.10
44429;BMP180;30134;47.866;-4.222;2023-12-22T00:20:39;102086.00;;;21.10
44429;BMP180;30134;47.866;-4.222;2023-12-22T00:23:05;102093.00;;;21.10
44429;BMP180;30134;47.866;-4.222;2023-12-22T00:25:32;102094.00;;;21.10
44429;BMP180;30134;47.866;-4.222;2023-12-22T00:27:58;102099.00;;;21.20
44429;BMP180;30134;47.866;-4.222;2023-12-22T00:30:24;102104.00;;;21.10
44429;BMP180;30134;47.866;-4.222;2023-12-22T00:32:51;102106.00;;;21.10
44429;BMP180;30134;47.866;-4.222;2023-12-22T00:35:17;102110.00;;;21.20
44429;BMP180;30134;47.866;-4.222;2023-12-22T00:37:44;102101.00;;;21.10
44429;BMP180;30134;47.866;-4.222;2023-12-22T00:40:10;102105.00;;;21.10
44429;BMP180;30134;47.866;-4.222;2023-12-22T00:42:37;102101.00;;;21.20
44429;BMP180;30134;47.866;-4.222;2023-12-22T00:45:04;102096.00;;;21.10
44429;BMP180;30134;47.866;-4.222;2023-12-22T00:47:30;102098.00;;;21.20
44429;BMP180;30134;47.866;-4.222;2023-12-22T00:49:56;102084.00;;;21.20
44429;BMP180;30134;47.866;-4.222;2023-12-22T00:52:23;102100.00;;;21.20
44429;BMP180;30134;47.866;-4.222;2023-12-22T00:54:49;102100.00;;;21.20
44429;BMP180;30134;47.866;-4.222;2023-12-22T00:57:16;102106.00;;;20.60
44429;BMP180;30134;47.866;-4.222;2023-12-22T00:59:42;102108.00;;;20.70
44429;BMP180;30134;47.866;-4.222;2023-12-22T01:02:16;102110.00;;;21.20
44429;BMP180;30134;47.866;-4.222;2023-12-22T01:04:43;102108.00;;;21.30
44429;BMP180;30134;47.866;-4.222;2023-12-22T01:07:10;102113.00;;;21.40
44429;BMP180;30134;47.866;-4.222;2023-12-22T01:09:37;102118.00;;;21.40
44429;BMP180;30134;47.866;-4.222;2023-12-22T01:12:04;102112.00;;;21.40
44429;BMP180;30134;47.866;-4.222;2023-12-22T01:14:32;102110.00;;;21.50
44429;BMP180;30134;47.866;-4.222;2023-12-22T01:16:58;102107.00;;;21.50
44429;BMP180;30134;47.866;-4.222;2023-12-22T01:19:26;102103.00;;;21.50
44429;BMP180;30134;47.866;-4.222;2023-12-22T01:21:52;102105.00;;;21.50
44429;BMP180;30134;47.866;-4.222;2023-12-22T01:24:19;102106.00;;;21.40
44429;BMP180;30134;47.866;-4.222;2023-12-22T01:26:45;102104.00;;;21.60
44429;BMP180;30134;47.866;-4.222;2023-12-22T01:29:12;102097.00;;;21.60
44429;BMP180;30134;47.866;-4.222;2023-12-22T01:31:38;102092.00;;;21.60
44429;BMP180;30134;47.866;-4.222;2023-12-22T01:34:05;102092.00;;;21.60
44429;BMP180;30134;47.866;-4.222;2023-12-22T01:36:31;102092.00;;;21.50
44429;BMP180;30134;47.866;-4.222;2023-12-22T01:38:57;102094.00;;;21.50
44429;BMP180;30134;47.866;-4.222;2023-12-22T01:41:24;102102.00;;;21.70
44429;BMP180;30134;47.866;-4.222;2023-12-22T01:43:50;102096.00;;;21.70
44429;BMP180;30134;47.866;-4.222;2023-12-22T01:46:17;102101.00;;;21.70
44429;BMP180;30134;47.866;-4.222;2023-12-22T01:48:44;102104.00;;;21.70
44429;BMP180;30134;47.866;-4.222;2023-12-22T01:51:11;102100.00;;;21.60
44429;BMP180;30134;47.866;-4.222;2023-12-22T01:53:38;102115.00;;;21.60
44429;BMP180;30134;47.866;-4.222;2023-12-22T01:56:05;102114.00;;;21.70
44429;BMP180;30134;47.866;-4.222;2023-12-22T01:58:34;102126.00;;;21.60
44429;BMP180;30134;47.866;-4.222;2023-12-22T02:01:03;102116.00;;;21.70
44429;BMP180;30134;47.866;-4.222;2023-12-22T02:03:30;102125.00;;;21.70
44429;BMP180;30134;47.866;-4.222;2023-12-22T02:05:56;102122.00;;;21.70
44429;BMP180;30134;47.866;-4.222;2023-12-22T02:08:23;102116.00;;;21.70
44429;BMP180;30134;47.866;-4.222;2023-12-22T02:10:50;102122.00;;;21.70
44429;BMP180;30134;47.866;-4.222;2023-12-22T02:13:16;102129.00;;;21.70
44429;BMP180;30134;47.866;-4.222;2023-12-22T02:15:43;102129.00;;;21.70
44429;BMP180;30134;47.866;-4.222;2023-12-22T02:18:16;102135.00;;;21.70
44429;BMP180;30134;47.866;-4.222;2023-12-22T02:20:44;102135.00;;;21.70
44429;BMP180;30134;47.866;-4.222;2023-12-22T02:23:11;102134.00;;;21.80
44429;BMP180;30134;47.866;-4.222;2023-12-22T02:25:37;102133.00;;;21.70
44429;BMP180;30134;47.866;-4.222;2023-12-22T02:28:16;102135.00;;;21.70
44429;BMP180;30134;47.866;-4.222;2023-12-22T02:30:55;102143.00;;;21.80
44429;BMP180;30134;47.866;-4.222;2023-12-22T02:33:23;102133.00;;;21.80
44429;BMP180;30134;47.866;-4.222;2023-12-22T02:35:54;102140.00;;;21.80
44429;BMP180;30134;47.866;-4.222;2023-12-22T02:38:22;102152.00;;;21.80
44429;BMP180;30134;47.866;-4.222;2023-12-22T02:40:49;102156.00;;;21.90
44429;BMP180;30134;47.866;-4.222;2023-12-22T02:43:16;102151.00;;;21.80
44429;BMP180;30134;47.866;-4.222;2023-12-22T02:45:42;102145.00;;;21.80
44429;BMP180;30134;47.866;-4.222;2023-12-22T02:48:09;102141.00;;;21.80
44429;BMP180;30134;47.866;-4.222;2023-12-22T02:50:35;102151.00;;;21.80
44429;BMP180;30134;47.866;-4.222;2023-12-22T02:53:02;102150.00;;;21.80
44429;BMP180;30134;47.866;-4.222;2023-12-22T02:55:28;102157.00;;;21.80
44429;BMP180;30134;47.866;-4.222;2023-12-22T02:57:55;102133.00;;;21.80
44429;BMP180;30134;47.866;-4.222;2023-12-22T03:00:21;102129.00;;;21.80
44429;BMP180;30134;47.866;-4.222;2023-12-22T03:02:48;102135.00;;;21.90
44429;BMP180;30134;47.866;-4.222;2023-12-22T03:05:14;102136.00;;;21.90
44429;BMP180;30134;47.866;-4.222;2023-12-22T03:07:40;102128.00;;;21.80
44429;BMP180;30134;47.866;-4.222;2023-12-22T03:10:07;102130.00;;;21.90
44429;BMP180;30134;47.866;-4.222;2023-12-22T03:12:33;102128.00;;;21.80
44429;BMP180;30134;47.866;-4.222;2023-12-22T03:15:00;102110.00;;;21.80
44429;BMP180;30134;47.866;-4.222;2023-12-22T03:17:26;102121.00;;;21.80
44429;BMP180;30134;47.866;-4.222;2023-12-22T03:19:53;102125.00;;;21.90
44429;BMP180;30134;47.866;-4.222;2023-12-22T03:22:19;102125.00;;;21.90
44429;BMP180;30134;47.866;-4.222;2023-12-22T03:24:46;102117.00;;;21.90
44429;BMP180;30134;47.866;-4.222;2023-12-22T03:27:12;102120.00;;;21.90
44429;BMP180;30134;47.866;-4.222;2023-12-22T03:29:43;102137.00;;;21.90
44429;BMP180;30134;47.866;-4.222;2023-12-22T03:32:09;102126.00;;;21.80
44429;BMP180;30134;47.866;-4.222;2023-12-22T03:34:36;102126.00;;;21.70
44429;BMP180;30134;47.866;-4.222;2023-12-22T03:37:02;102121.00;;;21.70
44429;BMP180;30134;47.866;-4.222;2023-12-22T03:39:29;102118.00;;;21.70
44429;BMP180;30134;47.866;-4.222;2023-12-22T03:41:55;102112.00;;;21.70
44429;BMP180;30134;47.866;-4.222;2023-12-22T03:44:22;102116.00;;;21.70
44429;BMP180;30134;47.866;-4.222;2023-12-22T03:46:48;102107.00;;;21.70
44429;BMP180;30134;47.866;-4.222;2023-12-22T03:49:14;102114.00;;;21.70
44429;BMP180;30134;47.866;-4.222;2023-12-22T03:51:41;102111.00;;;21.70
44429;BMP180;30134;47.866;-4.222;2023-12-22T03:54:07;102114.00;;;21.70
44429;BMP180;30134;47.866;-4.222;2023-12-22T03:56:34;102113.00;;;21.70
44429;BMP180;30134;47.866;-4.222;2023-12-22T03:59:00;102131.00;;;21.70
44429;BMP180;30134;47.866;-4.222;2023-12-22T04:01:27;102131.00;;;21.70
44429;BMP180;30134;47.866;-4.222;2023-12-22T04:03:53;102131.00;;;21.80
44429;BMP180;30134;47.866;-4.222;2023-12-22T04:06:19;102133.00;;;21.80
44429;BMP180;30134;47.866;-4.222;2023-12-22T04:08:46;102134.00;;;21.90
44429;BMP180;30134;47.866;-4.222;2023-12-22T04:11:12;102127.00;;;21.90
44429;BMP180;30134;47.866;-4.222;2023-12-22T04:13:39;102135.00;;;21.90
44429;BMP180;30134;47.866;-4.222;2023-12-22T04:16:05;102132.00;;;21.90
44429;BMP180;30134;47.866;-4.222;2023-12-22T04:18:32;102125.00;;;21.90
44429;BMP180;30134;47.866;-4.222;2023-12-22T04:20:58;102128.00;;;21.90
44429;BMP180;30134;47.866;-4.222;2023-12-22T04:23:24;102133.00;;;21.80
44429;BMP180;30134;47.866;-4.222;2023-12-22T04:25:51;102118.00;;;21.90
44429;BMP180;30134;47.866;-4.222;2023-12-22T04:28:17;102125.00;;;21.90
44429;BMP180;30134;47.866;-4.222;2023-12-22T04:30:44;102108.00;;;21.90
44429;BMP180;30134;47.866;-4.222;2023-12-22T04:33:10;102120.00;;;21.90
44429;BMP180;30134;47.866;-4.222;2023-12-22T04:35:36;102119.00;;;21.90
44429;BMP180;30134;47.866;-4.222;2023-12-22T04:38:03;102120.00;;;21.90
44429;BMP180;30134;47.866;-4.222;2023-12-22T04:40:29;102133.00;;;21.90
44429;BMP180;30134;47.866;-4.222;2023-12-22T04:42:56;102138.00;;;21.90
44429;BMP180;30134;47.866;-4.222;2023-12-22T04:45:22;102140.00;;;21.90
44429;BMP180;30134;47.866;-4.222;2023-12-22T04:47:48;102140.00;;;21.90
44429;BMP180;30134;47.866;-4.222;2023-12-22T04:50:15;102130.00;;;21.90
44429;BMP180;30134;47.866;-4.222;2023-12-22T04:52:41;102133.00;;;21.90
44429;BMP180;30134;47.866;-4.222;2023-12-22T04:55:08;102130.00;;;21.90
44429;BMP180;30134;47.866;-4.222;2023-12-22T04:57:34;102131.00;;;21.90
44429;BMP180;30134;47.866;-4.222;2023-12-22T05:00:00;102132.00;;;21.80
44429;BMP180;30134;47.866;-4.222;2023-12-22T05:02:27;102129.00;;;21.80
44429;BMP180;30134;47.866;-4.222;2023-12-22T05:04:55;102128.00;;;21.80
44429;BMP180;30134;47.866;-4.222;2023-12-22T05:07:21;102130.00;;;21.90
44429;BMP180;30134;47.866;-4.222;2023-12-22T05:09:50;102127.00;;;21.90
44429;BMP180;30134;47.866;-4.222;2023-12-22T05:12:18;102136.00;;;21.90
44429;BMP180;30134;47.866;-4.222;2023-12-22T05:14:45;102114.00;;;21.90
44429;BMP180;30134;47.866;-4.222;2023-12-22T05:17:12;102107.00;;;21.90
44429;BMP180;30134;47.866;-4.222;2023-12-22T05:19:38;102113.00;;;21.90
44429;BMP180;30134;47.866;-4.222;2023-12-22T05:22:05;102119.00;;;21.90
44429;BMP180;30134;47.866;-4.222;2023-12-22T05:24:31;102114.00;;;21.90
44429;BMP180;30134;47.866;-4.222;2023-12-22T05:26:58;102103.00;;;22.00
44429;BMP180;30134;47.866;-4.222;2023-12-22T05:29:24;102130.00;;;22.00
44429;BMP180;30134;47.866;-4.222;2023-12-22T05:31:50;102127.00;;;21.90
44429;BMP180;30134;47.866;-4.222;2023-12-22T05:34:17;102128.00;;;22.00
44429;BMP180;30134;47.866;-4.222;2023-12-22T05:36:43;102120.00;;;21.90
44429;BMP180;30134;47.866;-4.222;2023-12-22T05:39:10;102119.00;;;21.90
44429;BMP180;30134;47.866;-4.222;2023-12-22T05:41:36;102112.00;;;22.00
44429;BMP180;30134;47.866;-4.222;2023-12-22T05:44:05;102119.00;;;22.00
44429;BMP180;30134;47.866;-4.222;2023-12-22T05:46:38;102110.00;;;21.90
44429;BMP180;30134;47.866;-4.222;2023-12-22T05:49:05;102108.00;;;21.90
44429;BMP180;30134;47.866;-4.222;2023-12-22T05:51:41;102108.00;;;22.00
44429;BMP180;30134;47.866;-4.222;2023-12-22T05:54:10;102108.00;;;22.00
44429;BMP180;30134;47.866;-4.222;2023-12-22T05:56:37;102095.00;;;21.90
44429;BMP180;30134;47.866;-4.222;2023-12-22T05:59:04;102096.00;;;21.80
44429;BMP180;30134;47.866;-4.222;2023-12-22T06:01:30;102097.00;;;21.80
44429;BMP180;30134;47.866;-4.222;2023-12-22T06:03:57;102107.00;;;21.80
44429;BMP180;30134;47.866;-4.222;2023-12-22T06:06:23;102109.00;;;21.80
44429;BMP180;30134;47.866;-4.222;2023-12-22T06:08:49;102112.00;;;21.80
44429;BMP180;30134;47.866;-4.222;2023-12-22T06:11:16;102120.00;;;21.80
44429;BMP180;30134;47.866;-4.222;2023-12-22T06:13:42;102118.00;;;21.80
44429;BMP180;30134;47.866;-4.222;2023-12-22T06:16:13;102114.00;;;21.80
44429;BMP180;30134;47.866;-4.222;2023-12-22T06:18:40;102122.00;;;21.80
44429;BMP180;30134;47.866;-4.222;2023-12-22T06:21:08;102116.00;;;21.80
44429;BMP180;30134;47.866;-4.222;2023-12-22T06:23:34;102119.00;;;21.80
44429;BMP180;30134;47.866;-4.222;2023-12-22T06:26:00;102115.00;;;21.90
44429;BMP180;30134;47.866;-4.222;2023-12-22T06:28:28;102111.00;;;21.80
44429;BMP180;30134;47.866;-4.222;2023-12-22T06:30:55;102119.00;;;21.80
44429;BMP180;30134;47.866;-4.222;2023-12-22T06:33:21;102115.00;;;21.80
44429;BMP180;30134;47.866;-4.222;2023-12-22T06:35:47;102115.00;;;21.80
44429;BMP180;30134;47.866;-4.222;2023-12-22T06:38:14;102131.00;;;21.80
44429;BMP180;30134;47.866;-4.222;2023-12-22T06:40:40;102120.00;;;21.80
44429;BMP180;30134;47.866;-4.222;2023-12-22T06:43:07;102129.00;;;21.80
44429;BMP180;30134;47.866;-4.222;2023-12-22T06:45:33;102132.00;;;21.80
44429;BMP180;30134;47.866;-4.222;2023-12-22T06:47:59;102140.00;;;21.80
44429;BMP180;30134;47.866;-4.222;2023-12-22T06:50:26;102133.00;;;21.80
44429;BMP180;30134;47.866;-4.222;2023-12-22T06:52:52;102133.00;;;21.80
44429;BMP180;30134;47.866;-4.222;2023-12-22T06:55:18;102134.00;;;21.80
44429;BMP180;30134;47.866;-4.222;2023-12-22T06:57:45;102129.00;;;21.80
44429;BMP180;30134;47.866;-4.222;2023-12-22T07:00:12;102138.00;;;21.80
44429;BMP180;30134;47.866;-4.222;2023-12-22T07:02:38;102144.00;;;21.80
44429;BMP180;30134;47.866;-4.222;2023-12-22T07:07:49;102135.00;;;21.90
44429;BMP180;30134;47.866;-4.222;2023-12-22T07:10:16;102151.00;;;21.90
44429;BMP180;30134;47.866;-4.222;2023-12-22T07:12:43;102143.00;;;21.90
44429;BMP180;30134;47.866;-4.222;2023-12-22T07:15:09;102146.00;;;22.00
44429;BMP180;30134;47.866;-4.222;2023-12-22T07:17:36;102152.00;;;21.90
44429;BMP180;30134;47.866;-4.222;2023-12-22T07:20:03;102152.00;;;21.80
44429;BMP180;30134;47.866;-4.222;2023-12-22T07:22:30;102154.00;;;21.80
44429;BMP180;30134;47.866;-4.222;2023-12-22T07:24:56;102153.00;;;21.80
44429;BMP180;30134;47.866;-4.222;2023-12-22T07:27:23;102149.00;;;22.00
44429;BMP180;30134;47.866;-4.222;2023-12-22T07:29:49;102151.00;;;22.00
44429;BMP180;30134;47.866;-4.222;2023-12-22T07:32:16;102153.00;;;22.00
44429;BMP180;30134;47.866;-4.222;2023-12-22T07:34:42;102156.00;;;22.00
44429;BMP180;30134;47.866;-4.222;2023-12-22T07:37:09;102158.00;;;22.00
44429;BMP180;30134;47.866;-4.222;2023-12-22T07:39:35;102149.00;;;22.00
44429;BMP180;30134;47.866;-4.222;2023-12-22T07:42:02;102175.00;;;21.90
44429;BMP180;30134;47.866;-4.222;2023-12-22T07:44:28;102171.00;;;22.00
44429;BMP180;30134;47.866;-4.222;2023-12-22T07:46:58;102167.00;;;21.80
44429;BMP180;30134;47.866;-4.222;2023-12-22T07:49:25;102181.00;;;21.70
44429;BMP180;30134;47.866;-4.222;2023-12-22T07:51:52;102182.00;;;21.70
44429;BMP180;30134;47.866;-4.222;2023-12-22T07:54:19;102184.00;;;21.70
44429;BMP180;30134;47.866;-4.222;2023-12-22T07:56:45;102188.00;;;21.60
44429;BMP180;30134;47.866;-4.222;2023-12-22T07:59:12;102185.00;;;21.60
44429;BMP180;30134;47.866;-4.222;2023-12-22T08:01:39;102182.00;;;21.60
44429;BMP180;30134;47.866;-4.222;2023-12-22T08:04:06;102177.00;;;21.50
44429;BMP180;30134;47.866;-4.222;2023-12-22T08:06:32;102180.00;;;21.60
44429;BMP180;30134;47.866;-4.222;2023-12-22T08:08:59;102174.00;;;21.40
44429;BMP180;30134;47.866;-4.222;2023-12-22T08:11:25;102172.00;;;21.30
44429;BMP180;30134;47.866;-4.222;2023-12-22T08:13:52;102176.00;;;21.30
44429;BMP180;30134;47.866;-4.222;2023-12-22T08:16:19;102173.00;;;21.30
44429;BMP180;30134;47.866;-4.222;2023-12-22T08:18:46;102180.00;;;21.50
44429;BMP180;30134;47.866;-4.222;2023-12-22T08:21:14;102185.00;;;21.60
44429;BMP180;30134;47.866;-4.222;2023-12-22T08:23:41;102193.00;;;21.70
44429;BMP180;30134;47.866;-4.222;2023-12-22T08:26:07;102184.00;;;21.60
44429;BMP180;30134;47.866;-4.222;2023-12-22T08:28:34;102198.00;;;21.70
44429;BMP180;30134;47.866;-4.222;2023-12-22T08:31:00;102208.00;;;21.70
44429;BMP180;30134;47.866;-4.222;2023-12-22T08:33:26;102206.00;;;21.60
44429;BMP180;30134;47.866;-4.222;2023-12-22T08:35:53;102210.00;;;21.60
44429;BMP180;30134;47.866;-4.222;2023-12-22T08:38:19;102213.00;;;21.60
44429;BMP180;30134;47.866;-4.222;2023-12-22T08:40:46;102210.00;;;21.60
44429;BMP180;30134;47.866;-4.222;2023-12-22T08:43:12;102217.00;;;21.60
44429;BMP180;30134;47.866;-4.222;2023-12-22T08:45:38;102214.00;;;21.50
44429;BMP180;30134;47.866;-4.222;2023-12-22T08:48:06;102219.00;;;21.50
44429;BMP180;30134;47.866;-4.222;2023-12-22T08:50:35;102217.00;;;21.40
44429;BMP180;30134;47.866;-4.222;2023-12-22T08:53:01;102218.00;;;21.50
44429;BMP180;30134;47.866;-4.222;2023-12-22T08:55:28;102220.00;;;21.50
44429;BMP180;30134;47.866;-4.222;2023-12-22T08:57:55;102225.00;;;21.50
44429;BMP180;30134;47.866;-4.222;2023-12-22T09:00:21;102234.00;;;21.40
44429;BMP180;30134;47.866;-4.222;2023-12-22T09:02:48;102221.00;;;21.40
44429;BMP180;30134;47.866;-4.222;2023-12-22T09:05:15;102223.00;;;21.40
44429;BMP180;30134;47.866;-4.222;2023-12-22T09:07:41;102222.00;;;21.40
44429;BMP180;30134;47.866;-4.222;2023-12-22T09:10:07;102225.00;;;21.40
44429;BMP180;30134;47.866;-4.222;2023-12-22T09:12:34;102235.00;;;21.40
44429;BMP180;30134;47.866;-4.222;2023-12-22T09:15:00;102231.00;;;21.50
44429;BMP180;30134;47.866;-4.222;2023-12-22T09:17:27;102223.00;;;21.60
44429;BMP180;30134;47.866;-4.222;2023-12-22T09:19:54;102222.00;;;21.50
44429;BMP180;30134;47.866;-4.222;2023-12-22T09:22:21;102229.00;;;21.60
44429;BMP180;30134;47.866;-4.222;2023-12-22T09:24:47;102207.00;;;21.50
44429;BMP180;30134;47.866;-4.222;2023-12-22T09:27:15;102203.00;;;21.50
44429;BMP180;30134;47.866;-4.222;2023-12-22T09:29:41;102205.00;;;21.20
44429;BMP180;30134;47.866;-4.222;2023-12-22T09:32:08;102212.00;;;21.50
44429;BMP180;30134;47.866;-4.222;2023-12-22T09:34:34;102211.00;;;21.50
44429;BMP180;30134;47.866;-4.222;2023-12-22T09:37:01;102216.00;;;20.00
44429;BMP180;30134;47.866;-4.222;2023-12-22T09:39:27;102198.00;;;19.80
44429;BMP180;30134;47.866;-4.222;2023-12-22T09:41:55;102204.00;;;19.60
44429;BMP180;30134;47.866;-4.222;2023-12-22T09:44:22;102208.00;;;19.50
44429;BMP180;30134;47.866;-4.222;2023-12-22T09:46:51;102193.00;;;19.40
44429;BMP180;30134;47.866;-4.222;2023-12-22T09:49:21;102200.00;;;19.40
44429;BMP180;30134;47.866;-4.222;2023-12-22T09:51:49;102204.00;;;19.70
44429;BMP180;30134;47.866;-4.222;2023-12-22T09:54:17;102209.00;;;20.20
44429;BMP180;30134;47.866;-4.222;2023-12-22T09:56:44;102208.00;;;20.30
44429;BMP180;30134;47.866;-4.222;2023-12-22T09:59:13;102209.00;;;20.20
44429;BMP180;30134;47.866;-4.222;2023-12-22T10:01:44;102204.00;;;20.60
44429;BMP180;30134;47.866;-4.222;2023-12-22T10:04:12;102206.00;;;20.90
44429;BMP180;30134;47.866;-4.222;2023-12-22T10:06:38;102209.00;;;20.90
44429;BMP180;30134;47.866;-4.222;2023-12-22T10:09:06;102212.00;;;21.00
44429;BMP180;30134;47.866;-4.222;2023-12-22T10:11:36;102211.00;;;21.00
44429;BMP180;30134;47.866;-4.222;2023-12-22T10:14:03;102216.00;;;21.10
44429;BMP180;30134;47.866;-4.222;2023-12-22T10:16:30;102219.00;;;21.10
44429;BMP180;30134;47.866;-4.222;2023-12-22T10:18:58;102218.00;;;21.10
44429;BMP180;30134;47.866;-4.222;2023-12-22T10:21:25;102236.00;;;21.20
44429;BMP180;30134;47.866;-4.222;2023-12-22T10:23:52;102231.00;;;21.20
44429;BMP180;30134;47.866;-4.222;2023-12-22T10:26:18;102238.00;;;21.20
44429;BMP180;30134;47.866;-4.222;2023-12-22T10:28:47;102242.00;;;21.30
44429;BMP180;30134;47.866;-4.222;2023-12-22T10:31:15;102242.00;;;21.30
44429;BMP180;30134;47.866;-4.222;2023-12-22T10:33:43;102237.00;;;21.30
44429;BMP180;30134;47.866;-4.222;2023-12-22T10:36:10;102235.00;;;21.20
44429;BMP180;30134;47.866;-4.222;2023-12-22T10:38:36;102238.00;;;21.20
44429;BMP180;30134;47.866;-4.222;2023-12-22T10:41:04;102226.00;;;21.20
44429;BMP180;30134;47.866;-4.222;2023-12-22T10:43:36;102240.00;;;21.30
44429;BMP180;30134;47.866;-4.222;2023-12-22T10:46:03;102234.00;;;21.40
44429;BMP180;30134;47.866;-4.222;2023-12-22T10:48:29;102231.00;;;21.40
44429;BMP180;30134;47.866;-4.222;2023-12-22T10:50:57;102234.00;;;21.40
44429;BMP180;30134;47.866;-4.222;2023-12-22T10:53:23;102238.00;;;21.40
44429;BMP180;30134;47.866;-4.222;2023-12-22T10:55:50;102241.00;;;21.40
44429;BMP180;30134;47.866;-4.222;2023-12-22T10:58:17;102223.00;;;20.30
44429;BMP180;30134;47.866;-4.222;2023-12-22T11:00:45;102213.00;;;20.80
44429;BMP180;30134;47.866;-4.222;2023-12-22T11:03:17;102201.00;;;21.10
44429;BMP180;30134;47.866;-4.222;2023-12-22T11:05:46;102215.00;;;21.20
44429;BMP180;30134;47.866;-4.222;2023-12-22T11:08:15;102202.00;;;21.30
44429;BMP180;30134;47.866;-4.222;2023-12-22T11:10:43;102201.00;;;21.30
44429;BMP180;30134;47.866;-4.222;2023-12-22T11:13:12;102202.00;;;21.30
44429;BMP180;30134;47.866;-4.222;2023-12-22T11:15:40;102195.00;;;21.40
44429;BMP180;30134;47.866;-4.222;2023-12-22T11:18:08;102201.00;;;21.40
44429;BMP180;30134;47.866;-4.222;2023-12-22T11:20:36;102200.00;;;21.30
44429;BMP180;30134;47.866;-4.222;2023-12-22T11:23:04;102197.00;;;21.30
44429;BMP180;30134;47.866;-4.222;2023-12-22T11:25:32;102196.00;;;21.30
44429;BMP180;30134;47.866;-4.222;2023-12-22T11:27:59;102202.00;;;21.40
44429;BMP180;30134;47.866;-4.222;2023-12-22T11:30:27;102193.00;;;21.40
44429;BMP180;30134;47.866;-4.222;2023-12-22T11:32:55;102187.00;;;21.30
44429;BMP180;30134;47.866;-4.222;2023-12-22T11:35:24;102188.00;;;21.30
44429;BMP180;30134;47.866;-4.222;2023-12-22T11:37:51;102186.00;;;21.30
44429;BMP180;30134;47.866;-4.222;2023-12-22T11:40:19;102199.00;;;21.40
44429;BMP180;30134;47.866;-4.222;2023-12-22T11:42:49;102196.00;;;21.30
44429;BMP180;30134;47.866;-4.222;2023-12-22T11:45:18;102191.00;;;21.30
44429;BMP180;30134;47.866;-4.222;2023-12-22T11:47:46;102184.00;;;21.30
44429;BMP180;30134;47.866;-4.222;2023-12-22T11:50:13;102186.00;;;21.30
44429;BMP180;30134;47.866;-4.222;2023-12-22T11:52:53;102179.00;;;21.30
44429;BMP180;30134;47.866;-4.222;2023-12-22T11:55:55;102171.00;;;21.40
44429;BMP180;30134;47.866;-4.222;2023-12-22T11:58:46;102170.00;;;21.30
44429;BMP180;30134;47.866;-4.222;2023-12-22T12:01:20;102173.00;;;21.40
44429;BMP180;30134;47.866;-4.222;2023-12-22T12:04:02;102175.00;;;21.30
44429;BMP180;30134;47.866;-4.222;2023-12-22T12:09:00;102177.00;;;21.40
44429;BMP180;30134;47.866;-4.222;2023-12-22T12:14:31;102165.00;;;21.40
44429;BMP180;30134;47.866;-4.222;2023-12-22T12:17:08;102153.00;;;21.40
44429;BMP180;30134;47.866;-4.222;2023-12-22T12:19:38;102155.00;;;21.40
44429;BMP180;30134;47.866;-4.222;2023-12-22T12:22:05;102150.00;;;21.40
44429;BMP180;30134;47.866;-4.222;2023-12-22T12:24:33;102146.00;;;21.30
44429;BMP180;30134;47.866;-4.222;2023-12-22T12:27:00;102146.00;;;21.40
44429;BMP180;30134;47.866;-4.222;2023-12-22T12:29:26;102142.00;;;21.40
44429;BMP180;30134;47.866;-4.222;2023-12-22T12:32:03;102151.00;;;21.40
44429;BMP180;30134;47.866;-4.222;2023-12-22T12:34:31;102147.00;;;21.40
44429;BMP180;30134;47.866;-4.222;2023-12-22T12:36:58;102148.00;;;21.40
44429;BMP180;30134;47.866;-4.222;2023-12-22T12:39:25;102145.00;;;21.50
44429;BMP180;30134;47.866;-4.222;2023-12-22T12:41:55;102142.00;;;21.50
44429;BMP180;30134;47.866;-4.222;2023-12-22T12:44:24;102145.00;;;21.50
44429;BMP180;30134;47.866;-4.222;2023-12-22T12:46:51;102144.00;;;21.40
44429;BMP180;30134;47.866;-4.222;2023-12-22T12:49:19;102146.00;;;21.40
44429;BMP180;30134;47.866;-4.222;2023-12-22T12:51:47;102152.00;;;21.40
44429;BMP180;30134;47.866;-4.222;2023-12-22T12:54:15;102154.00;;;21.50
44429;BMP180;30134;47.866;-4.222;2023-12-22T12:56:46;102162.00;;;21.50
44429;BMP180;30134;47.866;-4.222;2023-12-22T12:59:14;102158.00;;;21.50
44429;BMP180;30134;47.866;-4.222;2023-12-22T13:01:42;102147.00;;;21.50
44429;BMP180;30134;47.866;-4.222;2023-12-22T13:04:09;102144.00;;;21.40
44429;BMP180;30134;47.866;-4.222;2023-12-22T13:06:52;102141.00;;;21.50
44429;BMP180;30134;47.866;-4.222;2023-12-22T13:09:30;102137.00;;;21.40
44429;BMP180;30134;47.866;-4.222;2023-12-22T13:11:57;102133.00;;;21.40
44429;BMP180;30134;47.866;-4.222;2023-12-22T13:14:24;102116.00;;;21.50
44429;BMP180;30134;47.866;-4.222;2023-12-22T13:16:55;102109.00;;;21.50
44429;BMP180;30134;47.866;-4.222;2023-12-22T13:19:23;102114.00;;;21.50
44429;BMP180;30134;47.866;-4.222;2023-12-22T13:21:56;102102.00;;;21.50
44429;BMP180;30134;47.866;-4.222;2023-12-22T13:24:23;102119.00;;;21.50
44429;BMP180;30134;47.866;-4.222;2023-12-22T13:27:04;102106.00;;;21.50
44429;BMP180;30134;47.866;-4.222;2023-12-22T13:29:43;102120.00;;;21.50
44429;BMP180;30134;47.866;-4.222;2023-12-22T13:32:18;102101.00;;;21.50
44429;BMP180;30134;47.866;-4.222;2023-12-22T13:34:53;102102.00;;;21.50
44429;BMP180;30134;47.866;-4.222;2023-12-22T13:37:20;102100.00;;;21.50
44429;BMP180;30134;47.866;-4.222;2023-12-22T13:39:47;102099.00;;;21.50
44429;BMP180;30134;47.866;-4.222;2023-12-22T13:42:18;102100.00;;;21.50
44429;BMP180;30134;47.866;-4.222;2023-12-22T13:44:46;102109.00;;;21.50
44429;BMP180;30134;47.866;-4.222;2023-12-22T13:47:18;102109.00;;;21.50
44429;BMP180;30134;47.866;-4.222;2023-12-22T13:49:48;102106.00;;;21.50
44429;BMP180;30134;47.866;-4.222;2023-12-22T13:52:31;102107.00;;;21.50
44429;BMP180;30134;47.866;-4.222;2023-12-22T13:55:14;102100.00;;;21.50